Travelers Rest, SC (29690)

12:18 PM EDT on September 01, 2015 (GMT -0400)
APRSWXNET | | Change Station
CLOSE
Current Station
Personal Weather Station
Location: Travelers Rest, SC
Elevation: 1049 ft
Nearby Weather Stations

Elev 1049 ft 35.00 °N, 82.43 °W | Updated 20 minutes ago

Clear
Clear
85 °F
Feels Like 88 °F
N
0
Wind Variable Wind from North
Gusts 0.0 mph

Today
High -- | Low -- °F
--% Chance of Precip.
Yesterday
High -- | Low -- °F
Precip. -- in
7:02 AM 7:56 PM
Waning Gibbous, 88% visible
Pressure 30.12 in
Visibility 10.0 miles
Clouds Clear
Heat Index 88 °F
Dew Point 68 °F
Humidity 56%
Rainfall in
Snow Depth Not available.
UV 9 out of 12
Pollen 8.40 out of 12
Air Quality Not available.
Flu Activity Not available.
METAR KGMU 011553Z 00000KT 10SM CLR 29/18 A3015 RMK AO2 SLP198 T02940183
Pressure 30.12 in
Visibility 10.0 miles
Clouds Clear
Heat Index 88 °F
Dew Point 68 °F
Humidity 56%
Rainfall in
Snow Depth Not available.
UV 9 out of 12
Pollen 8.40 out of 12
Air Quality Not available.
Flu Activity Not available.
METAR KGMU 011553Z 00000KT 10SM CLR 29/18 A3015 RMK AO2 SLP198 T02940183

10-Day Weather Forecast

×

Almanac

Astronomy

Sep. 01, 2015 Rise Set
Actual Time
Civil Twilight
Nautical Twilight
Astronomical Twilight
Moon
Length of Visible Light
Length of Day
Tomorrow will be .
, % of the Moon is Illuminated

Today's Extremes

State Highs State Lows

Community

WunderPhotos

Upload Photos

1,851,544 photos uploaded!

WunderBlogs® & News

Nearby

Air Quality

  Air Quality AQ Index Pollutant
Not available.

Snow Depth

Station Depth Elevation

Earthquake Activity

City Distance Mag. Time & Date
Minimum magnitude displayed is 2.5.

Coastal Water Temperatures

Place Temperature

Stations

Nearby Weather Stations

Station Location Temp. Windchill Dew Point Humidity Wind Precip. Elev Updated Type